Bookmark and Share
Track history (hours):
 

Camellia Maru

Last reported at 2014-Apr-16 10:33 UTC. Time now 2014-Apr-16 10:41 UTC.
Position N 35°26' E 139°48'.

Length 103 m; draft 4.8 m.

Type: Passenger vessel. MMSI: 431100840.

NotesDate/timePositionNaut miles runAvg speedWind from/ knotsBaromVisibWave heightAir tempDewpointWater temp
2014-Apr-16 10:33N 35°26' E 139°48'1212.1
2014-Apr-16 09:34N 35°14' E 139°47'1616.2
2014-Apr-16 08:33N 34°59' E 139°41'3817.1
2014-Apr-16 06:20N 34°21' E 139°34'33 2.4
2014-Apr-15 16:33N 34°54' E 139°39'1717.4
2014-Apr-15 15:33N 35°10' E 139°45'1413.9
2014-Apr-15 14:33N 35°24' E 139°43'13 6.7
2014-Apr-15 12:34N 35°37' E 139°46'2 2.3
2014-Apr-15 11:33N 35°39' E 139°46'0 0.1
2014-Apr-15 10:34N 35°39' E 139°46'1313.0
2014-Apr-15 09:34N 35°27' E 139°49'1212.2
2014-Apr-15 08:34N 35°14' E 139°47'1616.4
2014-Apr-15 07:34N 34°58' E 139°43'5 0.3
2014-Apr-14 15:33N 34°54' E 139°40'1717.3
2014-Apr-14 14:34N 35°10' E 139°45'1413.7
2014-Apr-14 13:34N 35°24' E 139°43'16 7.8
2014-Apr-14 11:33N 35°39' E 139°46'2 1.6
2014-Apr-14 10:33N 35°38' E 139°46'1312.7
2014-Apr-14 09:34N 35°25' E 139°47'1212.3
2014-Apr-14 08:34N 35°13' E 139°47'1717.3
2014-Apr-14 07:33N 34°56' E 139°40'1 0.1
2014-Apr-13 16:33N 34°55' E 139°40'1716.6
2014-Apr-13 15:33N 35°11' E 139°46'1413.5
2014-Apr-13 14:34N 35°25' E 139°43'1312.8
2014-Apr-13 13:33N 35°37' E 139°46'2 2.0
2014-Apr-13 12:33N 35°39' E 139°46'1 1.3
2014-Apr-13 11:33N 35°38' E 139°46'1312.8
2014-Apr-13 10:33N 35°25' E 139°47'1212.1
2014-Apr-13 09:33N 35°13' E 139°47'1717.1
2014-Apr-13 08:33N 34°57' E 139°41'2 0.1
2014-Apr-12 16:33N 34°55' E 139°40'1717.1
2014-Apr-12 15:34N 35°11' E 139°46'1313.1
2014-Apr-12 14:33N 35°24' E 139°43'1312.8
2014-Apr-12 13:33N 35°37' E 139°46'2 2.2
2014-Apr-12 12:33N 35°39' E 139°46'2 1.8
2014-Apr-12 11:33N 35°37' E 139°46'1312.7
2014-Apr-12 10:33N 35°25' E 139°47'1211.9
2014-Apr-12 09:33N 35°13' E 139°47'1717.2
2014-Apr-12 08:33N 34°56' E 139°41'5 0.3
2014-Apr-11 16:05N 35°01' E 139°42'1017.6
2014-Apr-11 15:33N 35°11' E 139°46'1413.9
2014-Apr-11 14:34N 35°24' E 139°43'1313.0
2014-Apr-11 13:34N 35°37' E 139°46'2 2.4
2014-Apr-11 12:33N 35°39' E 139°46'2 1.8
2014-Apr-11 11:33N 35°37' E 139°46'1312.6
2014-Apr-11 10:33N 35°25' E 139°47'1111.6
2014-Apr-11 09:33N 35°13' E 139°47'14 0.8
2014-Apr-10 16:08N 34°60' E 139°42'1018.1
2014-Apr-10 15:34N 35°10' E 139°45'1414.0
2014-Apr-10 14:34N 35°23' E 139°42'1413.7
2014-Apr-10 13:34N 35°37' E 139°46'2 2.4
2014-Apr-10 12:33N 35°39' E 139°46'2 1.7
2014-Apr-10 11:33N 35°38' E 139°46'1212.1
2014-Apr-10 10:33N 35°26' E 139°48'1212.1
2014-Apr-10 09:34N 35°14' E 139°47'2516.4
2014-Apr-10 08:03N 34°50' E 139°38'917.5
2014-Apr-10 07:31N 34°41' E 139°35'13 0.9
2014-Apr-09 16:32N 34°53' E 139°40'1716.9
2014-Apr-09 15:34N 35°09' E 139°45'1413.9
2014-Apr-09 14:33N 35°23' E 139°42'1413.7
2014-Apr-09 13:33N 35°37' E 139°46'3 2.6
2014-Apr-09 12:33N 35°39' E 139°46'0 0.0
2014-Apr-09 11:34N 35°39' E 139°46'1313.0
2014-Apr-09 10:34N 35°26' E 139°49'1212.3
2014-Apr-09 09:33N 35°14' E 139°47'1616.5
2014-Apr-09 08:33N 34°59' E 139°41'5 0.3
2014-Apr-08 16:33N 34°54' E 139°40'1717.4
2014-Apr-08 15:33N 35°10' E 139°45'1413.7
2014-Apr-08 14:33N 35°24' E 139°43'1313.1
2014-Apr-08 13:33N 35°37' E 139°46'2 2.4
2014-Apr-08 12:34N 35°39' E 139°46'0 0.0
2014-Apr-08 11:34N 35°39' E 139°46'1010.1
2014-Apr-08 10:34N 35°31' E 139°52'1414.2
2014-Apr-08 09:34N 35°18' E 139°45'1514.8
2014-Apr-08 08:33N 35°03' E 139°44'1717.2
2014-Apr-08 07:33N 34°47' E 139°36'1717.3
2014-Apr-08 06:33N 34°30' E 139°35'25 1.8
2014-Apr-07 16:33N 34°55' E 139°38'1717.0
2014-Apr-07 15:33N 35°10' E 139°46'1413.9
2014-Apr-07 14:34N 35°24' E 139°43'1313.3
2014-Apr-07 13:33N 35°37' E 139°46'2 2.1
2014-Apr-07 12:33N 35°39' E 139°46'0 0.0
2014-Apr-07 11:33N 35°39' E 139°46'8 7.6
2014-Apr-07 10:33N 35°33' E 139°51'1414.3
2014-Apr-07 09:34N 35°20' E 139°44'1414.4
2014-Apr-07 08:33N 35°05' E 139°46'1717.4
2014-Apr-07 07:33N 34°50' E 139°36'4 0.3
2014-Apr-06 16:33N 34°54' E 139°37'1717.5
2014-Apr-06 15:33N 35°10' E 139°45'1414.1
2014-Apr-06 14:33N 35°23' E 139°42'1413.7
2014-Apr-06 13:33N 35°37' E 139°46'2 2.4
2014-Apr-06 12:33N 35°39' E 139°46'0 0.0
2014-Apr-06 11:33N 35°39' E 139°46'  

Dump ship's entire track history

sailing weather and tide predictions

Camellia Maru — JG4619 — position and weather